»·PEaware :: N326MC KPAE-80T

N326MC :: KPAE-80T

FLIGHT INFORMATION

Flight Status: Arrived
Operator: Privately registered:
United States
More flights under this callsign
Pilot: Anonymous 5456 (5456)
Aircraft: CESSNA 404 TITAN
(C404)
More flights by this aircraft type
Origin: KPAE Snohomish Co
United States
Destination: 80T Quincy Mun
United States
More flights between these airports :: More routes between these airports
Route: +SEA V120 EAT V357 QUINT
File this flight plan on PilotEdge
Remarks:
Altitude:
(Current/Filed)
11,000ft
Speed:
(Current/Filed)
200kts
Departed: 12-Oct-17 12:17 PM
Arrived: 12-Oct-17 01:03 PM
Distance/Time
Traveled:
107nm/0:46
Distance/Time
To Go:
Arrived

Flight Plot

Page will automatically refresh every two minutes.

Flight plan parsing failed; only flown route is shown


Map Options




Map Legend


Flown Route
Filed Route
Departure Airport
Arrival Airport
Navaid (VOR, NDB)
Fix

Horizontal Profiles

Position Reports

Time Latitude Longitude Heading Altitude Ground
Speed
12-Oct-17 12:11 47.905527 -122.270909 321 582ft 0kts
12-Oct-17 12:12 47.905527 -122.270909 321 582ft 0kts
12-Oct-17 12:13 47.905527 -122.270909 321 582ft 0kts
12-Oct-17 12:14 47.905527 -122.270909 321 582ft 0kts
12-Oct-17 12:15 47.905527 -122.270909 321 582ft 0kts
12-Oct-17 12:16 47.905527 -122.270909 321 582ft 0kts
12-Oct-17 12:17 47.905527 -122.270909 321 582ft 0kts
12-Oct-17 12:18 47.905527 -122.270909 321 582ft 0kts
12-Oct-17 12:19 47.905527 -122.270909 321 582ft 0kts
12-Oct-17 12:20 47.905684 -122.271089 349 583ft 3kts
12-Oct-17 12:21 47.899644 -122.271734 178 673ft 98kts
12-Oct-17 12:22 47.870854 -122.271067 179 2136ft 111kts
12-Oct-17 12:23 47.845118 -122.273356 180 3387ft 113kts
12-Oct-17 12:24 47.814250 -122.276022 179 4861ft 113kts
12-Oct-17 12:25 47.783067 -122.278639 180 6187ft 113kts
12-Oct-17 12:26 47.751636 -122.281412 180 7105ft 114kts
12-Oct-17 12:27 47.720139 -122.284179 180 8073ft 114kts
12-Oct-17 12:28 47.690504 -122.286726 180 9034ft 106kts
12-Oct-17 12:29 47.666359 -122.269398 130 9906ft 118kts
12-Oct-17 12:30 47.646652 -122.224571 127 10475ft 140kts
12-Oct-17 12:31 47.625441 -122.175065 126 11135ft 147kts
12-Oct-17 12:32 47.601889 -122.127326 128 11802ft 149kts
12-Oct-17 12:33 47.580146 -122.076619 125 12471ft 151kts
12-Oct-17 12:34 47.557999 -122.024072 125 12983ft 163kts
12-Oct-17 12:35 47.533458 -121.965943 125 12974ft 176kts
12-Oct-17 12:36 47.506967 -121.903136 125 12974ft 188kts
12-Oct-17 12:37 47.478737 -121.836446 124 12971ft 195kts
12-Oct-17 12:38 47.449891 -121.768461 124 12927ft 199kts
12-Oct-17 12:39 47.429421 -121.694599 89 12879ft 200kts
12-Oct-17 12:40 47.428383 -121.613228 90 12884ft 200kts
12-Oct-17 12:41 47.427298 -121.535421 89 13546ft 181kts
12-Oct-17 12:42 47.426079 -121.459358 89 13894ft 198kts
12-Oct-17 12:43 47.424787 -121.376879 90 13882ft 206kts
12-Oct-17 12:45 47.423480 -121.294964 91 13908ft 206kts
12-Oct-17 12:46 47.421994 -121.210220 92 13910ft 206kts
12-Oct-17 12:47 47.420507 -121.126592 91 13883ft 202kts
12-Oct-17 12:48 47.418891 -121.043994 91 13906ft 200kts
12-Oct-17 12:49 47.417339 -120.962598 91 13932ft 199kts
12-Oct-17 12:50 47.415705 -120.881036 91 13947ft 200kts
12-Oct-17 12:51 47.414013 -120.799761 91 13946ft 198kts
12-Oct-17 12:52 47.412236 -120.717968 91 13950ft 201kts
12-Oct-17 12:53 47.410412 -120.635567 91 13950ft 202kts
12-Oct-17 12:54 47.408513 -120.552966 91 13950ft 202kts
12-Oct-17 12:55 47.406459 -120.470163 91 13950ft 202kts
12-Oct-17 12:56 47.404365 -120.387284 91 13950ft 203kts
12-Oct-17 12:57 47.402328 -120.306314 91 13947ft 203kts
12-Oct-17 12:58 47.400163 -120.223881 93 13947ft 203kts
12-Oct-17 12:59 47.368411 -120.159374 135 13948ft 198kts
12-Oct-17 13:00 47.331799 -120.099668 135 13932ft 183kts
12-Oct-17 13:01 47.302713 -120.052303 136 12213ft 145kts
12-Oct-17 13:02 47.272315 -120.003012 135 10573ft 167kts
12-Oct-17 13:03 47.246099 -119.960497 133 8763ft 117kts
12-Oct-17 13:04 47.225769 -119.927923 133 6732ft 108kts
12-Oct-17 13:05 47.208104 -119.938334 313 4224ft 115kts
12-Oct-17 13:06 47.219508 -119.909012 86 2635ft 104kts
12-Oct-17 13:07 47.217504 -119.870444 106 1794ft 87kts
12-Oct-17 13:08 47.211693 -119.840239 102 1271ft 13kts

Navigation Log

Ident Type
Flight plan parsing failed, navigation log unavailable